sensor_id;sensor_type;location;lat;lon;timestamp;pressure;altitude;pressure_sealevel;temperature;humidity
47815;BME280;33579;50.058;18.130;2023-02-20T00:00:51;99921.22;;;2.49;100.00
47815;BME280;33579;50.058;18.130;2023-02-20T00:01:54;99916.81;;;2.51;100.00
47815;BME280;33579;50.058;18.130;2023-02-20T00:02:56;99921.34;;;2.46;100.00
47815;BME280;33579;50.058;18.130;2023-02-20T00:03:58;99919.72;;;2.44;100.00
47815;BME280;33579;50.058;18.130;2023-02-20T00:04:59;99923.41;;;2.38;100.00
47815;BME280;33579;50.058;18.130;2023-02-20T00:06:01;99912.06;;;2.41;100.00
47815;BME280;33579;50.058;18.130;2023-02-20T00:07:03;99920.09;;;2.34;100.00
47815;BME280;33579;50.058;18.130;2023-02-20T00:08:04;99909.78;;;2.33;100.00
47815;BME280;33579;50.058;18.130;2023-02-20T00:09:06;99903.56;;;2.37;100.00
47815;BME280;33579;50.058;18.130;2023-02-20T00:10:08;99905.25;;;2.38;100.00
47815;BME280;33579;50.058;18.130;2023-02-20T00:11:10;99903.56;;;2.37;100.00
47815;BME280;33579;50.058;18.130;2023-02-20T00:12:12;99909.47;;;2.41;100.00
47815;BME280;33579;50.058;18.130;2023-02-20T00:13:14;99903.56;;;2.37;100.00
47815;BME280;33579;50.058;18.130;2023-02-20T00:14:15;99918.22;;;2.38;100.00
47815;BME280;33579;50.058;18.130;2023-02-20T00:15:18;99913.22;;;2.33;100.00
47815;BME280;33579;50.058;18.130;2023-02-20T00:16:20;99915.75;;;2.35;100.00
47815;BME280;33579;50.058;18.130;2023-02-20T00:17:22;99920.91;;;2.36;100.00
47815;BME280;33579;50.058;18.130;2023-02-20T00:18:23;99920.09;;;2.34;100.00
47815;BME280;33579;50.058;18.130;2023-02-20T00:19:25;99918.53;;;2.30;100.00
47815;BME280;33579;50.058;18.130;2023-02-20T00:20:27;99922.06;;;2.29;100.00
47815;BME280;33579;50.058;18.130;2023-02-20T00:21:28;99921.00;;;2.33;100.00
47815;BME280;33579;50.058;18.130;2023-02-20T00:22:30;99923.50;;;2.36;100.00
47815;BME280;33579;50.058;18.130;2023-02-20T00:23:33;99926.16;;;2.35;100.00
47815;BME280;33579;50.058;18.130;2023-02-20T00:24:35;99927.78;;;2.37;100.00
47815;BME280;33579;50.058;18.130;2023-02-20T00:25:37;99932.06;;;2.38;100.00
47815;BME280;33579;50.058;18.130;2023-02-20T00:26:38;99936.41;;;2.38;100.00
47815;BME280;33579;50.058;18.130;2023-02-20T00:27:41;99930.28;;;2.39;100.00
47815;BME280;33579;50.058;18.130;2023-02-20T00:28:43;99933.81;;;2.38;100.00
47815;BME280;33579;50.058;18.130;2023-02-20T00:29:45;99933.03;;;2.36;100.00
47815;BME280;33579;50.058;18.130;2023-02-20T00:30:48;99928.88;;;2.32;100.00
47815;BME280;33579;50.058;18.130;2023-02-20T00:31:55;99936.66;;;2.32;100.00
47815;BME280;33579;50.058;18.130;2023-02-20T00:32:58;99933.81;;;2.38;100.00
47815;BME280;33579;50.058;18.130;2023-02-20T00:34:01;99940.78;;;2.37;100.00
47815;BME280;33579;50.058;18.130;2023-02-20T00:35:03;99934.84;;;2.34;100.00
47815;BME280;33579;50.058;18.130;2023-02-20T00:36:05;99929.47;;;2.38;100.00
47815;BME280;33579;50.058;18.130;2023-02-20T00:37:07;99931.28;;;2.36;100.00
47815;BME280;33579;50.058;18.130;2023-02-20T00:38:08;99926.94;;;2.37;100.00
47815;BME280;33579;50.058;18.130;2023-02-20T00:39:10;99930.13;;;2.44;100.00
47815;BME280;33579;50.058;18.130;2023-02-20T00:40:12;99919.81;;;2.42;100.00
47815;BME280;33579;50.058;18.130;2023-02-20T00:41:15;99917.06;;;2.45;100.00
47815;BME280;33579;50.058;18.130;2023-02-20T00:42:17;99914.59;;;2.42;100.00
47815;BME280;33579;50.058;18.130;2023-02-20T00:43:18;99917.91;;;2.46;100.00
47815;BME280;33579;50.058;18.130;2023-02-20T00:44:20;99911.34;;;2.37;100.00
47815;BME280;33579;50.058;18.130;2023-02-20T00:45:22;99924.28;;;2.38;100.00
47815;BME280;33579;50.058;18.130;2023-02-20T00:46:23;99915.56;;;2.39;100.00
47815;BME280;33579;50.058;18.130;2023-02-20T00:47:25;99918.81;;;2.45;100.00
47815;BME280;33579;50.058;18.130;2023-02-20T00:48:27;99917.06;;;2.45;100.00
47815;BME280;33579;50.058;18.130;2023-02-20T00:49:48;99911.59;;;2.51;100.00
47815;BME280;33579;50.058;18.130;2023-02-20T00:50:50;99918.50;;;2.52;100.00
47815;BME280;33579;50.058;18.130;2023-02-20T00:51:51;99913.44;;;2.49;100.00
47815;BME280;33579;50.058;18.130;2023-02-20T00:52:53;99922.31;;;2.44;100.00
47815;BME280;33579;50.058;18.130;2023-02-20T00:53:54;99916.09;;;2.48;100.00
47815;BME280;33579;50.058;18.130;2023-02-20T00:54:56;99921.16;;;2.51;100.00
47815;BME280;33579;50.058;18.130;2023-02-20T00:55:57;99924.53;;;2.53;100.00
47815;BME280;33579;50.058;18.130;2023-02-20T00:56:59;99919.22;;;2.56;100.00
47815;BME280;33579;50.058;18.130;2023-02-20T00:58:01;99912.00;;;2.63;100.00
47815;BME280;33579;50.058;18.130;2023-02-20T00:59:02;99913.56;;;2.67;100.00
47815;BME280;33579;50.058;18.130;2023-02-20T01:00:06;99916.03;;;2.70;100.00
47815;BME280;33579;50.058;18.130;2023-02-20T01:01:07;99906.63;;;2.67;100.00
47815;BME280;33579;50.058;18.130;2023-02-20T01:02:09;99910.97;;;2.67;100.00
47815;BME280;33579;50.058;18.130;2023-02-20T01:03:11;99916.28;;;2.64;100.00
47815;BME280;33579;50.058;18.130;2023-02-20T01:04:13;99909.41;;;2.63;100.00
47815;BME280;33579;50.058;18.130;2023-02-20T01:05:15;99907.22;;;2.53;100.00
47815;BME280;33579;50.058;18.130;2023-02-20T01:06:17;99903.94;;;2.48;100.00
47815;BME280;33579;50.058;18.130;2023-02-20T01:07:18;99904.91;;;2.46;100.00
47815;BME280;33579;50.058;18.130;2023-02-20T01:08:20;99899.03;;;2.42;100.00
47815;BME280;33579;50.058;18.130;2023-02-20T01:09:22;99906.81;;;2.42;100.00
47815;BME280;33579;50.058;18.130;2023-02-20T01:10:23;99909.34;;;2.44;100.00
47815;BME280;33579;50.058;18.130;2023-02-20T01:11:25;99906.50;;;2.50;100.00
47815;BME280;33579;50.058;18.130;2023-02-20T01:12:26;99903.91;;;2.50;100.00
47815;BME280;33579;50.058;18.130;2023-02-20T01:13:28;99904.66;;;2.52;100.00
47815;BME280;33579;50.058;18.130;2023-02-20T01:14:30;99907.28;;;2.52;100.00
47815;BME280;33579;50.058;18.130;2023-02-20T01:15:34;99897.84;;;2.49;100.00
47815;BME280;33579;50.058;18.130;2023-02-20T01:16:36;99889.88;;;2.54;100.00
47815;BME280;33579;50.058;18.130;2023-02-20T01:17:38;99893.09;;;2.59;100.00
47815;BME280;33579;50.058;18.130;2023-02-20T01:18:39;99898.19;;;2.62;100.00
47815;BME280;33579;50.058;18.130;2023-02-20T01:19:43;99896.56;;;2.60;100.00
47815;BME280;33579;50.058;18.130;2023-02-20T01:20:44;99895.78;;;2.58;100.00
47815;BME280;33579;50.058;18.130;2023-02-20T01:21:46;99902.66;;;2.59;100.00
47815;BME280;33579;50.058;18.130;2023-02-20T01:22:48;99900.88;;;2.59;100.00
47815;BME280;33579;50.058;18.130;2023-02-20T01:23:49;99901.81;;;2.58;100.00
47815;BME280;33579;50.058;18.130;2023-02-20T01:24:51;99901.81;;;2.58;100.00
47815;BME280;33579;50.058;18.130;2023-02-20T01:25:52;99902.72;;;2.57;100.00
47815;BME280;33579;50.058;18.130;2023-02-20T01:26:54;99905.41;;;2.56;100.00
47815;BME280;33579;50.058;18.130;2023-02-20T01:27:55;99906.31;;;2.55;100.00
47815;BME280;33579;50.058;18.130;2023-02-20T01:28:57;99904.09;;;2.45;100.00
47815;BME280;33579;50.058;18.130;2023-02-20T01:29:58;99896.28;;;2.45;100.00
47815;BME280;33579;50.058;18.130;2023-02-20T01:31:00;99903.22;;;2.45;100.00
47815;BME280;33579;50.058;18.130;2023-02-20T01:32:02;99898.16;;;2.42;100.00
47815;BME280;33579;50.058;18.130;2023-02-20T01:33:04;99905.78;;;2.46;100.00
47815;BME280;33579;50.058;18.130;2023-02-20T01:34:05;99906.59;;;2.47;100.00
47815;BME280;33579;50.058;18.130;2023-02-20T01:35:07;99906.94;;;2.39;100.00
47815;BME280;33579;50.058;18.130;2023-02-20T01:36:09;99896.47;;;2.41;100.00
47815;BME280;33579;50.058;18.130;2023-02-20T01:37:15;99892.34;;;2.36;100.00
47815;BME280;33579;50.058;18.130;2023-02-20T01:38:16;99890.69;;;2.34;100.00
47815;BME280;33579;50.058;18.130;2023-02-20T01:39:23;99898.53;;;2.32;100.00
47815;BME280;33579;50.058;18.130;2023-02-20T01:40:27;99890.06;;;2.29;100.00
47815;BME280;33579;50.058;18.130;2023-02-20T01:41:28;99887.53;;;2.27;100.00
47815;BME280;33579;50.058;18.130;2023-02-20T01:42:31;99888.25;;;2.31;100.00
47815;BME280;33579;50.058;18.130;2023-02-20T01:43:33;99887.66;;;2.24;100.00
47815;BME280;33579;50.058;18.130;2023-02-20T01:44:36;99883.28;;;2.24;100.00
47815;BME280;33579;50.058;18.130;2023-02-20T01:45:38;99886.66;;;2.27;100.00
47815;BME280;33579;50.058;18.130;2023-02-20T01:46:47;99883.97;;;2.30;100.00
47815;BME280;33579;50.058;18.130;2023-02-20T01:47:54;99879.41;;;2.35;100.00
47815;BME280;33579;50.058;18.130;2023-02-20T01:49:01;99877.66;;;2.35;100.00
47815;BME280;33579;50.058;18.130;2023-02-20T01:50:04;99876.09;;;2.31;100.00
47815;BME280;33579;50.058;18.130;2023-02-20T01:51:06;99869.34;;;2.27;100.00
47815;BME280;33579;50.058;18.130;2023-02-20T01:52:26;99868.38;;;2.30;100.00
47815;BME280;33579;50.058;18.130;2023-02-20T01:53:29;99865.06;;;2.26;100.00
47815;BME280;33579;50.058;18.130;2023-02-20T01:54:32;99867.56;;;2.28;100.00
47815;BME280;33579;50.058;18.130;2023-02-20T01:55:58;99861.56;;;2.27;100.00
47815;BME280;33579;50.058;18.130;2023-02-20T01:57:03;99858.91;;;2.29;100.00
47815;BME280;33579;50.058;18.130;2023-02-20T01:58:27;99860.66;;;2.28;100.00
47815;BME280;33579;50.058;18.130;2023-02-20T01:59:31;99861.41;;;2.30;100.00
47815;BME280;33579;50.058;18.130;2023-02-20T02:00:33;99859.88;;;2.26;100.00
47815;BME280;33579;50.058;18.130;2023-02-20T02:01:35;99852.00;;;2.28;100.00
47815;BME280;33579;50.058;18.130;2023-02-20T02:02:39;99843.09;;;2.33;100.00
47815;BME280;33579;50.058;18.130;2023-02-20T02:03:44;99846.56;;;2.34;100.00
47815;BME280;33579;50.058;18.130;2023-02-20T02:04:49;99841.56;;;2.29;100.00
47815;BME280;33579;50.058;18.130;2023-02-20T02:05:57;99840.72;;;2.29;100.00
47815;BME280;33579;50.058;18.130;2023-02-20T02:07:01;99839.00;;;2.28;100.00
47815;BME280;33579;50.058;18.130;2023-02-20T02:08:05;99833.00;;;2.27;100.00
47815;BME280;33579;50.058;18.130;2023-02-20T02:10:02;99830.41;;;2.27;100.00
47815;BME280;33579;50.058;18.130;2023-02-20T02:10:51;99826.75;;;2.31;100.00
47815;BME280;33579;50.058;18.130;2023-02-20T02:11:54;99825.25;;;2.25;100.00
47815;BME280;33579;50.058;18.130;2023-02-20T02:12:56;99825.34;;;2.24;100.00
47815;BME280;33579;50.058;18.130;2023-02-20T02:13:59;99826.25;;;2.23;100.00
47815;BME280;33579;50.058;18.130;2023-02-20T02:15:01;99830.53;;;2.24;100.00
47815;BME280;33579;50.058;18.130;2023-02-20T02:18:58;99823.72;;;2.21;100.00
47815;BME280;33579;50.058;18.130;2023-02-20T02:24:34;99806.16;;;2.27;100.00
47815;BME280;33579;50.058;18.130;2023-02-20T02:35:01;99806.59;;;2.17;100.00
47815;BME280;33579;50.058;18.130;2023-02-20T02:36:25;99800.47;;;2.18;100.00
47815;BME280;33579;50.058;18.130;2023-02-20T02:38:54;99793.06;;;2.09;100.00
47815;BME280;33579;50.058;18.130;2023-02-20T02:40:02;99795.66;;;2.09;100.00
47815;BME280;33579;50.058;18.130;2023-02-20T02:43:07;99788.41;;;2.17;100.00
47815;BME280;33579;50.058;18.130;2023-02-20T02:44:15;99785.53;;;2.23;100.00
47815;BME280;33579;50.058;18.130;2023-02-20T02:45:38;99776.59;;;2.31;100.00
47815;BME280;33579;50.058;18.130;2023-02-20T02:46:55;99779.25;;;2.29;100.00
47815;BME280;33579;50.058;18.130;2023-02-20T02:49:13;99778.66;;;2.22;100.00
47815;BME280;33579;50.058;18.130;2023-02-20T02:51:27;99771.22;;;2.15;100.00
47815;BME280;33579;50.058;18.130;2023-02-20T02:52:30;99773.66;;;2.18;100.00
47815;BME280;33579;50.058;18.130;2023-02-20T02:53:33;99772.84;;;2.17;100.00
47815;BME280;33579;50.058;18.130;2023-02-20T02:54:34;99769.25;;;2.20;100.00
47815;BME280;33579;50.058;18.130;2023-02-20T02:55:36;99771.94;;;2.18;100.00
47815;BME280;33579;50.058;18.130;2023-02-20T02:56:43;99768.56;;;2.16;100.00
47815;BME280;33579;50.058;18.130;2023-02-20T02:57:45;99765.25;;;2.13;100.00
47815;BME280;33579;50.058;18.130;2023-02-20T02:58:50;99773.28;;;2.06;100.00
47815;BME280;33579;50.058;18.130;2023-02-20T02:59:58;99774.47;;;1.99;100.00
47815;BME280;33579;50.058;18.130;2023-02-20T03:01:01;99772.69;;;2.00;100.00
47815;BME280;33579;50.058;18.130;2023-02-20T03:02:09;99780.63;;;1.96;100.00
47815;BME280;33579;50.058;18.130;2023-02-20T03:03:32;99779.75;;;1.96;100.00
47815;BME280;33579;50.058;18.130;2023-02-20T03:04:36;99779.66;;;1.99;100.00
47815;BME280;33579;50.058;18.130;2023-02-20T03:05:47;99779.75;;;1.96;100.00
47815;BME280;33579;50.058;18.130;2023-02-20T03:06:56;99782.34;;;1.96;100.00
47815;BME280;33579;50.058;18.130;2023-02-20T03:08:00;99779.66;;;1.99;100.00
47815;BME280;33579;50.058;18.130;2023-02-20T03:10:08;99785.47;;;2.04;100.00
47815;BME280;33579;50.058;18.130;2023-02-20T03:11:19;99776.72;;;2.07;100.00
47815;BME280;33579;50.058;18.130;2023-02-20T03:12:25;99781.00;;;2.08;100.00
47815;BME280;33579;50.058;18.130;2023-02-20T03:13:30;99786.19;;;2.08;100.00
47815;BME280;33579;50.058;18.130;2023-02-20T03:14:39;99777.50;;;2.09;100.00
47815;BME280;33579;50.058;18.130;2023-02-20T03:15:48;99781.00;;;2.08;100.00
47815;BME280;33579;50.058;18.130;2023-02-20T03:17:09;99782.75;;;2.07;100.00
47815;BME280;33579;50.058;18.130;2023-02-20T03:18:22;99778.09;;;2.16;100.00
47815;BME280;33579;50.058;18.130;2023-02-20T03:19:29;99780.88;;;2.11;100.00
47815;BME280;33579;50.058;18.130;2023-02-20T03:20:32;99770.53;;;2.09;100.00
47815;BME280;33579;50.058;18.130;2023-02-20T03:21:35;99773.09;;;2.11;100.00
47815;BME280;33579;50.058;18.130;2023-02-20T03:23:01;99771.34;;;2.12;100.00
47815;BME280;33579;50.058;18.130;2023-02-20T03:24:05;99777.31;;;2.14;100.00
47815;BME280;33579;50.058;18.130;2023-02-20T03:25:12;99768.47;;;2.18;100.00
47815;BME280;33579;50.058;18.130;2023-02-20T03:26:19;99768.34;;;2.21;100.00
47815;BME280;33579;50.058;18.130;2023-02-20T03:27:39;99762.31;;;2.20;100.00
47815;BME280;33579;50.058;18.130;2023-02-20T03:28:57;99766.06;;;2.13;100.00
47815;BME280;33579;50.058;18.130;2023-02-20T03:30:01;99766.22;;;2.10;100.00
47815;BME280;33579;50.058;18.130;2023-02-20T03:31:06;99756.94;;;2.04;100.00
47815;BME280;33579;50.058;18.130;2023-02-20T03:32:12;99760.38;;;2.05;100.00
47815;BME280;33579;50.058;18.130;2023-02-20T03:34:24;99750.81;;;2.05;100.00
47815;BME280;33579;50.058;18.130;2023-02-20T03:35:30;99746.22;;;2.12;100.00
47815;BME280;33579;50.058;18.130;2023-02-20T03:36:45;99749.34;;;2.00;100.00
47815;BME280;33579;50.058;18.130;2023-02-20T03:37:49;99752.97;;;1.95;100.00
47815;BME280;33579;50.058;18.130;2023-02-20T03:38:59;99746.09;;;1.94;100.00
47815;BME280;33579;50.058;18.130;2023-02-20T03:40:07;99743.22;;;2.01;100.00
47815;BME280;33579;50.058;18.130;2023-02-20T03:41:12;99739.72;;;2.02;100.00
47815;BME280;33579;50.058;18.130;2023-02-20T03:42:18;99742.28;;;2.03;100.00
47815;BME280;33579;50.058;18.130;2023-02-20T03:43:28;99735.34;;;2.04;100.00
47815;BME280;33579;50.058;18.130;2023-02-20T03:44:34;99739.53;;;2.06;100.00
47815;BME280;33579;50.058;18.130;2023-02-20T03:45:38;99739.81;;;2.00;100.00
47815;BME280;33579;50.058;18.130;2023-02-20T03:46:44;99739.88;;;1.99;100.00
47815;BME280;33579;50.058;18.130;2023-02-20T03:47:50;99729.47;;;1.99;100.00
47815;BME280;33579;50.058;18.130;2023-02-20T03:49:02;99736.22;;;2.03;100.00
47815;BME280;33579;50.058;18.130;2023-02-20T03:50:07;99727.75;;;1.99;100.00
47815;BME280;33579;50.058;18.130;2023-02-20T03:51:11;99743.44;;;1.96;100.00
47815;BME280;33579;50.058;18.130;2023-02-20T03:52:21;99737.28;;;1.99;100.00
47815;BME280;33579;50.058;18.130;2023-02-20T03:53:24;99744.28;;;1.96;100.00
47815;BME280;33579;50.058;18.130;2023-02-20T03:54:27;99747.00;;;1.93;100.00
47815;BME280;33579;50.058;18.130;2023-02-20T03:55:29;99744.41;;;1.93;100.00
47815;BME280;33579;50.058;18.130;2023-02-20T03:56:37;99747.00;;;1.93;100.00
47815;BME280;33579;50.058;18.130;2023-02-20T03:57:46;99752.13;;;1.95;100.00
47815;BME280;33579;50.058;18.130;2023-02-20T03:58:55;99746.94;;;1.95;100.00
47815;BME280;33579;50.058;18.130;2023-02-20T04:00:05;99745.97;;;1.98;100.00
47815;BME280;33579;50.058;18.130;2023-02-20T04:01:16;99755.38;;;2.00;100.00
47815;BME280;33579;50.058;18.130;2023-02-20T04:02:33;99754.66;;;1.96;100.00
47815;BME280;33579;50.058;18.130;2023-02-20T04:03:39;99757.25;;;1.96;100.00
47815;BME280;33579;50.058;18.130;2023-02-20T04:04:50;99759.84;;;1.96;100.00
47815;BME280;33579;50.058;18.130;2023-02-20T04:05:54;99757.31;;;1.95;100.00
47815;BME280;33579;50.058;18.130;2023-02-20T04:07:11;99756.59;;;1.91;100.00
47815;BME280;33579;50.058;18.130;2023-02-20T04:08:22;99754.00;;;1.91;100.00
47815;BME280;33579;50.058;18.130;2023-02-20T04:09:27;99755.75;;;1.91;100.00
47815;BME280;33579;50.058;18.130;2023-02-20T04:10:36;99748.94;;;1.88;100.00
47815;BME280;33579;50.058;18.130;2023-02-20T04:11:47;99743.63;;;1.91;100.00
47815;BME280;33579;50.058;18.130;2023-02-20T04:12:51;99748.13;;;1.88;100.00
47815;BME280;33579;50.058;18.130;2023-02-20T04:13:54;99742.25;;;1.82;100.00
47815;BME280;33579;50.058;18.130;2023-02-20T04:14:58;99739.09;;;1.76;100.00
47815;BME280;33579;50.058;18.130;2023-02-20T04:16:02;99735.38;;;1.81;100.00
47815;BME280;33579;50.058;18.130;2023-02-20T04:17:08;99737.94;;;1.83;100.00
47815;BME280;33579;50.058;18.130;2023-02-20T04:18:12;99731.63;;;1.89;100.00
47815;BME280;33579;50.058;18.130;2023-02-20T04:19:16;99728.84;;;1.93;100.00
47815;BME280;33579;50.058;18.130;2023-02-20T04:20:20;99733.03;;;1.96;100.00
47815;BME280;33579;50.058;18.130;2023-02-20T04:21:36;99734.81;;;1.95;100.00
47815;BME280;33579;50.058;18.130;2023-02-20T04:22:44;99729.53;;;1.97;100.00
47815;BME280;33579;50.058;18.130;2023-02-20T04:23:51;99740.53;;;2.04;100.00
47815;BME280;33579;50.058;18.130;2023-02-20T04:25:00;99731.88;;;2.03;100.00
47815;BME280;33579;50.058;18.130;2023-02-20T04:26:08;99737.53;;;1.92;100.00
47815;BME280;33579;50.058;18.130;2023-02-20T04:27:14;99730.72;;;1.90;100.00
47815;BME280;33579;50.058;18.130;2023-02-20T04:28:23;99730.72;;;1.90;100.00
47815;BME280;33579;50.058;18.130;2023-02-20T04:29:33;99731.63;;;1.89;100.00
47815;BME280;33579;50.058;18.130;2023-02-20T04:30:35;99729.94;;;1.88;100.00
47815;BME280;33579;50.058;18.130;2023-02-20T04:31:37;99728.19;;;1.88;100.00
47815;BME280;33579;50.058;18.130;2023-02-20T04:32:39;99734.28;;;1.87;100.00
47815;BME280;33579;50.058;18.130;2023-02-20T04:33:40;99747.53;;;1.81;100.00
47815;BME280;33579;50.058;18.130;2023-02-20T04:34:47;99735.75;;;1.72;100.00
47815;BME280;33579;50.058;18.130;2023-02-20T04:35:49;99741.09;;;1.69;100.00
47815;BME280;33579;50.058;18.130;2023-02-20T04:36:54;99737.59;;;1.70;100.00
47815;BME280;33579;50.058;18.130;2023-02-20T04:38:01;99744.59;;;1.68;100.00
47815;BME280;33579;50.058;18.130;2023-02-20T04:39:03;99744.53;;;1.70;100.00
47815;BME280;33579;50.058;18.130;2023-02-20T04:40:08;99738.56;;;1.67;100.00
47815;BME280;33579;50.058;18.130;2023-02-20T04:41:11;99742.03;;;1.66;100.00
47815;BME280;33579;50.058;18.130;2023-02-20T04:42:13;99736.16;;;1.63;100.00
47815;BME280;33579;50.058;18.130;2023-02-20T04:43:16;99730.91;;;1.64;100.00
47815;BME280;33579;50.058;18.130;2023-02-20T04:44:18;99736.03;;;1.66;100.00
47815;BME280;33579;50.058;18.130;2023-02-20T04:45:22;99729.69;;;1.73;100.00
47815;BME280;33579;50.058;18.130;2023-02-20T04:46:23;99733.75;;;1.79;100.00
47815;BME280;33579;50.058;18.130;2023-02-20T04:47:25;99734.44;;;1.84;100.00
47815;BME280;33579;50.058;18.130;2023-02-20T04:48:27;99734.16;;;1.90;100.00
47815;BME280;33579;50.058;18.130;2023-02-20T04:49:28;99741.75;;;1.95;100.00
47815;BME280;33579;50.058;18.130;2023-02-20T04:50:33;99744.09;;;2.01;100.00
47815;BME280;33579;50.058;18.130;2023-02-20T04:51:37;99739.66;;;2.03;100.00
47815;BME280;33579;50.058;18.130;2023-02-20T04:52:38;99739.53;;;2.06;100.00
47815;BME280;33579;50.058;18.130;2023-02-20T04:53:40;99741.16;;;2.09;100.00
47815;BME280;33579;50.058;18.130;2023-02-20T04:54:41;99736.78;;;2.09;100.00
47815;BME280;33579;50.058;18.130;2023-02-20T04:55:45;99741.03;;;2.12;100.00
47815;BME280;33579;50.058;18.130;2023-02-20T04:56:51;99733.22;;;2.12;100.00
47815;BME280;33579;50.058;18.130;2023-02-20T04:57:54;99731.50;;;2.13;100.00
47815;BME280;33579;50.058;18.130;2023-02-20T04:58:56;99725.41;;;2.14;100.00
47815;BME280;33579;50.058;18.130;2023-02-20T04:59:58;99722.78;;;2.14;100.00
47815;BME280;33579;50.058;18.130;2023-02-20T05:00:59;99720.19;;;2.14;100.00
47815;BME280;33579;50.058;18.130;2023-02-20T05:02:01;99723.72;;;2.13;100.00
47815;BME280;33579;50.058;18.130;2023-02-20T05:03:02;99715.00;;;2.14;100.00
47815;BME280;33579;50.058;18.130;2023-02-20T05:04:04;99719.28;;;2.15;100.00
47815;BME280;33579;50.058;18.130;2023-02-20T05:05:08;99716.63;;;2.16;100.00
47815;BME280;33579;50.058;18.130;2023-02-20T05:06:15;99722.78;;;2.14;100.00
47815;BME280;33579;50.058;18.130;2023-02-20T05:07:16;99716.56;;;1.97;100.00
47815;BME280;33579;50.058;18.130;2023-02-20T05:08:18;99713.38;;;1.90;100.00
47815;BME280;33579;50.058;18.130;2023-02-20T05:09:20;99724.03;;;1.84;100.00
47815;BME280;33579;50.058;18.130;2023-02-20T05:10:24;99719.63;;;1.65;100.00
47815;BME280;33579;50.058;18.130;2023-02-20T05:11:26;99721.03;;;1.52;100.00
47815;BME280;33579;50.058;18.130;2023-02-20T05:12:28;99713.25;;;1.52;100.00
47815;BME280;33579;50.058;18.130;2023-02-20T05:13:29;99715.94;;;1.50;100.00
47815;BME280;33579;50.058;18.130;2023-02-20T05:14:31;99720.38;;;1.47;100.00
47815;BME280;33579;50.058;18.130;2023-02-20T05:15:33;99713.75;;;1.39;100.00
47815;BME280;33579;50.058;18.130;2023-02-20T05:16:36;99707.06;;;1.34;100.00
47815;BME280;33579;50.058;18.130;2023-02-20T05:17:38;99714.97;;;1.31;100.00
47815;BME280;33579;50.058;18.130;2023-02-20T05:18:39;99708.34;;;1.23;100.00
47815;BME280;33579;50.058;18.130;2023-02-20T05:19:41;99710.81;;;1.26;100.00
47815;BME280;33579;50.058;18.130;2023-02-20T05:20:42;99711.47;;;1.32;100.00
47815;BME280;33579;50.058;18.130;2023-02-20T05:21:44;99709.66;;;1.34;100.00
47815;BME280;33579;50.058;18.130;2023-02-20T05:22:47;99707.88;;;1.36;100.00
47815;BME280;33579;50.058;18.130;2023-02-20T05:23:48;99703.31;;;1.41;100.00
47815;BME280;33579;50.058;18.130;2023-02-20T05:24:50;99711.06;;;1.43;100.00
47815;BME280;33579;50.058;18.130;2023-02-20T05:25:52;99705.78;;;1.44;100.00
47815;BME280;33579;50.058;18.130;2023-02-20T05:26:54;99713.38;;;1.49;100.00
47815;BME280;33579;50.058;18.130;2023-02-20T05:27:57;99713.16;;;1.55;100.00
47815;BME280;33579;50.058;18.130;2023-02-20T05:28:58;99709.47;;;1.61;100.00
47815;BME280;33579;50.058;18.130;2023-02-20T05:30:00;99707.75;;;1.60;100.00
47815;BME280;33579;50.058;18.130;2023-02-20T05:31:02;99704.91;;;1.66;100.00
47815;BME280;33579;50.058;18.130;2023-02-20T05:32:03;99697.56;;;1.76;100.00
47815;BME280;33579;50.058;18.130;2023-02-20T05:33:05;99703.47;;;1.79;100.00
47815;BME280;33579;50.058;18.130;2023-02-20T05:34:07;99697.38;;;1.80;100.00
47815;BME280;33579;50.058;18.130;2023-02-20T05:35:09;99700.75;;;1.82;100.00
47815;BME280;33579;50.058;18.130;2023-02-20T05:36:10;99699.78;;;1.85;100.00
47815;BME280;33579;50.058;18.130;2023-02-20T05:37:14;99699.66;;;1.88;100.00
47815;BME280;33579;50.058;18.130;2023-02-20T05:38:17;99704.69;;;1.91;100.00
47815;BME280;33579;50.058;18.130;2023-02-20T05:39:19;99708.28;;;1.89;100.00
47815;BME280;33579;50.058;18.130;2023-02-20T05:40:21;99716.66;;;1.95;100.00
47815;BME280;33579;50.058;18.130;2023-02-20T05:41:22;99711.91;;;2.05;100.00
47815;BME280;33579;50.058;18.130;2023-02-20T05:42:24;99697.22;;;2.04;100.00
47815;BME280;33579;50.058;18.130;2023-02-20T05:43:25;99709.16;;;2.08;100.00
47815;BME280;33579;50.058;18.130;2023-02-20T05:44:27;99703.78;;;2.13;100.00
47815;BME280;33579;50.058;18.130;2023-02-20T05:45:29;99708.84;;;2.16;100.00
47815;BME280;33579;50.058;18.130;2023-02-20T05:46:30;99697.47;;;2.19;100.00
47815;BME280;33579;50.058;18.130;2023-02-20T05:47:32;99703.38;;;2.22;100.00
47815;BME280;33579;50.058;18.130;2023-02-20T05:48:33;99704.22;;;2.23;100.00
47815;BME280;33579;50.058;18.130;2023-02-20T05:49:36;99699.91;;;2.22;100.00
47815;BME280;33579;50.058;18.130;2023-02-20T05:50:37;99701.50;;;2.26;100.00
47815;BME280;33579;50.058;18.130;2023-02-20T05:51:51;99706.69;;;2.26;100.00
47815;BME280;33579;50.058;18.130;2023-02-20T05:52:52;99702.31;;;2.27;100.00
47815;BME280;33579;50.058;18.130;2023-02-20T05:53:54;99706.69;;;2.26;100.00
47815;BME280;33579;50.058;18.130;2023-02-20T05:54:56;99705.19;;;2.20;100.00
47815;BME280;33579;50.058;18.130;2023-02-20T05:55:58;99701.84;;;2.18;100.00
47815;BME280;33579;50.058;18.130;2023-02-20T05:56:59;99702.50;;;2.22;100.00
47815;BME280;33579;50.058;18.130;2023-02-20T05:58:02;99712.00;;;2.23;100.00
47815;BME280;33579;50.058;18.130;2023-02-20T05:59:04;99711.88;;;2.26;100.00
47815;BME280;33579;50.058;18.130;2023-02-20T06:00:05;99704.00;;;2.28;100.00
47815;BME280;33579;50.058;18.130;2023-02-20T06:01:23;99704.78;;;2.30;100.00
47815;BME280;33579;50.058;18.130;2023-02-20T06:02:25;99702.25;;;2.28;100.00